createdAt,value
2017-12-04T00:02:53.657Z,28.13
2017-12-04T00:07:56.207Z,26.33
2017-12-04T00:12:58.761Z,28.97
2017-12-04T00:18:01.284Z,26.77
2017-12-04T00:23:03.835Z,26.73
2017-12-04T00:28:06.386Z,28.00
2017-12-04T00:33:08.942Z,26.90
2017-12-04T00:38:11.474Z,29.83
2017-12-04T00:43:14.017Z,23.73
2017-12-04T00:48:16.567Z,26.87
2017-12-04T00:53:19.123Z,25.70
2017-12-04T00:58:21.667Z,29.23
2017-12-04T01:03:24.202Z,26.23
2017-12-04T01:08:26.747Z,24.93
2017-12-04T01:13:29.297Z,23.60
2017-12-04T01:18:31.834Z,23.70
2017-12-04T01:23:34.387Z,25.17
2017-12-04T01:28:36.939Z,26.67
2017-12-04T01:33:39.488Z,23.93
2017-12-04T01:38:42.031Z,39.27
2017-12-04T01:43:44.579Z,22.60
2017-12-04T01:48:47.116Z,20.50
2017-12-04T01:53:49.662Z,18.63
2017-12-04T01:58:52.215Z,25.37
2017-12-04T02:03:54.759Z,27.70
2017-12-04T02:08:57.287Z,25.00
2017-12-04T02:13:59.811Z,20.60
2017-12-04T02:19:03.131Z,19.83
2017-12-04T02:24:05.670Z,21.63
2017-12-04T02:29:08.220Z,29.70
2017-12-04T02:34:11.531Z,23.30
2017-12-04T02:39:14.071Z,30.03
2017-12-04T02:44:16.611Z,29.60
2017-12-04T02:49:19.159Z,22.43
2017-12-04T02:54:21.718Z,24.70
2017-12-04T02:59:24.258Z,22.93
2017-12-04T03:04:26.800Z,20.03
2017-12-04T03:09:29.325Z,17.10
2017-12-04T03:14:32.642Z,19.20
2017-12-04T03:19:35.953Z,26.53
2017-12-04T03:24:38.498Z,23.83
2017-12-04T03:29:41.038Z,21.10
2017-12-04T03:34:43.586Z,19.10
2017-12-04T03:39:46.129Z,26.27
2017-12-04T03:44:48.673Z,18.77
2017-12-04T03:49:51.202Z,18.57
2017-12-04T03:54:53.746Z,21.83
2017-12-04T03:59:56.297Z,14.40
2017-12-04T04:04:58.830Z,19.07
2017-12-04T04:10:02.235Z,20.00
2017-12-04T04:15:04.779Z,19.97
2017-12-04T04:20:07.345Z,11.87
2017-12-04T04:25:09.875Z,16.20
2017-12-04T04:30:12.416Z,13.40
2017-12-04T04:35:14.951Z,16.27
2017-12-04T04:40:18.263Z,15.40
2017-12-04T04:45:20.795Z,16.90
2017-12-04T04:50:23.359Z,16.30
2017-12-04T04:55:25.886Z,11.40
2017-12-04T05:00:28.414Z,10.17
2017-12-04T05:05:31.751Z,20.10
2017-12-04T05:10:34.301Z,19.20
2017-12-04T05:15:36.838Z,20.77
2017-12-04T05:20:39.386Z,16.17
2017-12-04T05:25:41.913Z,11.60
2017-12-04T05:30:44.478Z,11.60
2017-12-04T05:35:47.783Z,16.50
2017-12-04T05:40:50.339Z,13.50
2017-12-04T05:45:52.878Z,10.83
2017-12-04T05:50:56.200Z,13.03
2017-12-04T05:55:59.511Z,15.87
2017-12-04T06:01:02.802Z,11.90
2017-12-04T06:06:05.364Z,10.30
2017-12-04T06:11:07.913Z,17.10
2017-12-04T06:16:10.451Z,12.90
2017-12-04T06:21:12.982Z,13.27
2017-12-04T06:31:36.979Z,18.00
2017-12-04T06:36:40.813Z,12.60
2017-12-04T06:41:45.251Z,8.27
2017-12-04T06:52:16.924Z,9.20
2017-12-04T06:57:23.341Z,37.97
2017-12-04T07:02:30.242Z,8.53
2017-12-04T07:07:37.024Z,10.73
2017-12-04T07:12:46.052Z,6.60
2017-12-04T07:17:56.654Z,7.80
2017-12-04T07:23:02.458Z,7.83
2017-12-04T07:28:15.265Z,8.00
2017-12-04T07:33:23.508Z,9.00
2017-12-04T07:43:43.026Z,8.27
2017-12-04T07:48:49.136Z,6.63
2017-12-04T07:53:52.975Z,9.03
2017-12-04T07:58:57.843Z,6.60
2017-12-04T08:04:03.175Z,8.70
2017-12-04T08:09:10.024Z,9.73
2017-12-04T08:14:14.721Z,10.70
2017-12-04T08:19:20.068Z,7.47
2017-12-04T08:24:24.555Z,12.70
2017-12-04T08:29:30.265Z,12.60
2017-12-04T08:34:33.821Z,10.90
2017-12-04T08:39:37.692Z,9.73
2017-12-04T08:44:41.754Z,9.93
2017-12-04T08:49:45.049Z,9.07
2017-12-04T08:54:48.078Z,10.23
2017-12-04T08:59:52.040Z,10.30
2017-12-04T09:04:55.726Z,11.10
2017-12-04T09:09:59.025Z,6.73
2017-12-04T09:15:02.911Z,6.63
2017-12-04T09:20:06.029Z,7.53
2017-12-04T09:25:10.048Z,7.33
2017-12-04T09:30:12.925Z,8.10
2017-12-04T09:35:18.846Z,10.10
2017-12-04T09:40:22.007Z,4.43
2017-12-04T09:45:25.971Z,18.77
2017-12-04T09:50:32.679Z,8.27
2017-12-04T09:55:35.682Z,4.97
2017-12-04T10:00:43.218Z,5.63
2017-12-04T10:05:48.193Z,4.53
2017-12-04T10:10:51.582Z,5.43
2017-12-04T10:15:54.502Z,5.17
2017-12-04T10:20:58.263Z,4.70
2017-12-04T10:26:02.242Z,13.47
2017-12-04T10:31:05.272Z,5.37
2017-12-04T10:36:08.446Z,5.33
2017-12-04T10:41:11.359Z,7.23
2017-12-04T10:46:16.639Z,3.30
2017-12-04T10:51:19.662Z,9.20
2017-12-04T10:56:24.567Z,16.87
2017-12-04T11:01:29.158Z,6.73
2017-12-04T11:06:32.302Z,6.47
2017-12-04T11:11:36.311Z,12.77
2017-12-04T11:16:40.908Z,5.77
2017-12-04T11:21:46.305Z,4.30
2017-12-04T11:26:51.646Z,7.90
2017-12-04T11:31:54.891Z,22.43
2017-12-04T11:37:08.581Z,9.10
2017-12-04T11:42:25.667Z,10.37
2017-12-04T11:47:36.892Z,7.23
2017-12-04T11:52:42.173Z,9.37
2017-12-04T11:57:45.351Z,12.50
2017-12-04T12:02:53.686Z,9.50
2017-12-04T12:07:59.887Z,10.03
2017-12-04T12:13:03.204Z,9.33
2017-12-04T12:18:09.780Z,13.50
2017-12-04T12:23:16.855Z,14.40
2017-12-04T12:28:21.098Z,6.60
2017-12-04T12:33:31.085Z,5.40
2017-12-04T12:38:38.785Z,7.13
2017-12-04T12:43:42.931Z,6.13
2017-12-04T12:48:47.719Z,8.63
2017-12-04T12:53:51.820Z,6.83
2017-12-04T12:58:54.792Z,10.73
2017-12-04T13:04:02.524Z,34.53
2017-12-04T13:09:06.962Z,8.30
2017-12-04T13:14:12.581Z,6.70
2017-12-04T13:19:21.085Z,6.70
2017-12-04T13:24:25.590Z,6.73
2017-12-04T13:29:29.069Z,7.27
2017-12-04T13:40:09.797Z,11.57
2017-12-04T13:45:30.088Z,9.47
2017-12-04T13:50:35.044Z,5.13
2017-12-04T13:55:42.225Z,4.70
2017-12-04T14:00:45.270Z,6.63
2017-12-04T14:05:49.016Z,8.90
2017-12-04T14:10:57.055Z,6.47
2017-12-04T14:16:02.961Z,9.63
2017-12-04T14:21:09.399Z,8.57
2017-12-04T14:26:16.164Z,8.97
2017-12-04T14:31:19.671Z,7.67
2017-12-04T14:36:24.015Z,8.20
2017-12-04T14:41:28.495Z,10.03
2017-12-04T14:46:31.055Z,8.67
2017-12-04T14:51:33.600Z,7.57
2017-12-04T14:56:36.153Z,7.50
2017-12-04T15:01:38.702Z,6.37
2017-12-04T15:06:42.019Z,9.37
2017-12-04T15:11:45.318Z,7.33
2017-12-04T15:16:47.855Z,4.50
2017-12-04T15:21:50.390Z,11.60
2017-12-04T15:26:52.933Z,13.20
2017-12-04T15:31:56.254Z,14.10
2017-12-04T15:36:58.799Z,7.50
2017-12-04T15:42:01.333Z,7.00
2017-12-04T15:47:03.858Z,12.23
2017-12-04T15:52:06.399Z,10.33
2017-12-04T15:57:08.938Z,11.70
2017-12-04T16:02:12.255Z,8.80
2017-12-04T16:07:14.789Z,12.00
2017-12-04T16:12:17.335Z,6.73
2017-12-04T16:17:20.634Z,9.27
2017-12-04T16:22:23.175Z,10.57
2017-12-04T16:27:25.723Z,8.77
2017-12-04T16:32:28.259Z,8.03
2017-12-04T16:37:30.802Z,8.80
2017-12-04T16:42:33.348Z,5.67
2017-12-04T16:47:35.878Z,4.90
2017-12-04T16:52:38.399Z,13.73
2017-12-04T16:57:41.731Z,11.70
2017-12-04T17:02:44.278Z,4.80
2017-12-04T17:07:47.582Z,6.37
2017-12-04T17:12:50.887Z,11.03
2017-12-04T17:17:53.428Z,16.53
2017-12-04T17:22:55.961Z,10.43
2017-12-04T17:27:58.495Z,9.90
2017-12-04T17:33:01.808Z,7.40
2017-12-04T17:38:04.350Z,14.13
2017-12-04T17:43:06.879Z,8.57
2017-12-04T17:48:09.419Z,10.33
2017-12-04T17:53:11.967Z,10.87
2017-12-04T17:58:14.510Z,10.43
2017-12-04T18:03:17.810Z,11.03
2017-12-04T18:08:20.362Z,10.57
2017-12-04T18:13:22.905Z,10.27
2017-12-04T18:18:26.255Z,10.33
2017-12-04T18:23:28.782Z,9.23
2017-12-04T18:28:31.351Z,9.53
2017-12-04T18:33:33.891Z,8.43
2017-12-04T18:38:36.435Z,11.30
2017-12-04T18:43:39.754Z,8.60
2017-12-04T18:48:43.054Z,6.53
2017-12-04T18:53:46.363Z,10.53
2017-12-04T18:58:48.920Z,7.00
2017-12-04T19:03:52.234Z,11.47
2017-12-04T19:08:54.777Z,14.20
2017-12-04T19:13:57.311Z,14.27
2017-12-04T19:18:59.843Z,18.00
2017-12-04T19:24:02.387Z,16.87
2017-12-04T19:29:05.703Z,19.70
2017-12-04T19:34:09.007Z,25.60
2017-12-04T19:39:11.609Z,19.87
2017-12-04T19:44:14.139Z,18.17
2017-12-04T19:49:16.763Z,22.93
2017-12-04T19:54:19.307Z,16.83
2017-12-04T19:59:21.843Z,20.07
2017-12-04T20:04:24.403Z,23.27
2017-12-04T20:09:26.955Z,15.30
2017-12-04T20:14:29.507Z,20.33
2017-12-04T20:19:32.059Z,16.13
2017-12-04T20:24:34.609Z,21.07
2017-12-04T20:29:37.923Z,19.30
2017-12-04T20:34:41.233Z,18.30
2017-12-04T20:39:43.781Z,15.20
2017-12-04T20:44:46.368Z,19.70
2017-12-04T20:49:48.924Z,14.83
2017-12-04T20:54:51.454Z,16.37
2017-12-04T20:59:53.994Z,18.53
2017-12-04T21:04:56.536Z,13.93
2017-12-04T21:10:11.787Z,13.50
2017-12-04T21:15:38.122Z,14.50
2017-12-04T21:20:40.658Z,10.43
2017-12-04T21:25:43.203Z,10.90
2017-12-04T21:30:45.750Z,14.43
2017-12-04T21:35:49.138Z,12.17
2017-12-04T21:40:51.715Z,13.00
2017-12-04T21:45:55.030Z,8.93
2017-12-04T21:50:57.567Z,10.63
2017-12-04T21:56:00.111Z,7.80
2017-12-04T22:01:02.743Z,8.10
2017-12-04T22:06:05.279Z,6.60
2017-12-04T22:11:08.587Z,6.00
2017-12-04T22:16:11.127Z,6.23
2017-12-04T22:21:13.668Z,7.70
2017-12-04T22:26:16.206Z,7.10
2017-12-04T22:31:18.755Z,11.87
2017-12-04T22:36:21.307Z,12.33
2017-12-04T22:41:23.847Z,14.37
2017-12-04T22:46:26.388Z,19.17
2017-12-04T22:51:28.923Z,18.70
2017-12-04T22:56:31.519Z,18.37
2017-12-04T23:01:34.129Z,25.23
2017-12-04T23:06:36.703Z,18.73
2017-12-04T23:11:39.245Z,21.93
2017-12-04T23:16:41.798Z,20.40
2017-12-04T23:21:44.352Z,31.40
2017-12-04T23:26:46.914Z,28.00
2017-12-04T23:31:49.457Z,28.13
2017-12-04T23:36:52.008Z,26.37
2017-12-04T23:41:54.543Z,19.63
2017-12-04T23:46:57.084Z,24.20
2017-12-04T23:51:59.610Z,16.57
2017-12-04T23:57:02.161Z,22.10
